Latest Weather Observations for Browse Island

IDW60801

Issued at 11:32 am WST Saturday 31 January 2015 (issued every 30 minutes, with the page automatically refreshed every 10 minutes)

About weather observations | Map of weather stations | Latest weather observations for WA | Other Formats
Station Details ID: 200784 Name: BROWSE ISLAND Lat: -14.11 Lon: 123.55 Height: 3.7 m
Data from the previous 72 hours. | See also: Recent months for locations in Western Australia
Date/Time
WST
Temp
°C
App
Temp
°C
Dew
Point
Rel
Hum
%
Delta-T
°C
Wind Press
QNH
hPa
Press
MSL
hPa
Rain
since 9 am
mm
Dir
 
Spd
km/h
Gust
km/h
Spd
kts
Gust
kts
31/11:30am 29.0 - - - - W 24 26 13 14 1009.0 - -
31/11:00am 28.9 - - - - W 24 26 13 14 1010.0 1010.1 -
31/10:30am 29.0 - - - - W 24 - 13 - 1010.0 - -
31/10:00am 28.9 - - - - W 20 - 11 - 1010.0 1010.5 -
31/09:30am 29.0 - - - - W 19 - 10 - 1010.0 - -
31/09:00am 28.7 - - - - W 20 - 11 - 1010.0 1010.2 -
31/08:30am 29.0 - - - - W 20 - 11 - 1009.0 - -
31/08:00am 28.5 - - - - W 19 - 10 - 1009.0 1009.6 -
31/07:30am 29.0 - - - - W 17 - 9 - 1009.0 - -
31/07:00am 28.5 - - - - W 17 - 9 - 1009.0 1009.4 -
31/06:30am 29.0 - - - - W 19 - 10 - 1009.0 - -
31/06:00am 28.5 - - - - W 20 22 11 12 1009.0 1008.9 -
31/05:30am 29.0 - - - - W 19 - 10 - 1008.0 - -
31/05:00am 28.5 - - - - W 20 - 11 - 1008.0 1008.7 -
31/04:30am 29.0 - - - - W 19 - 10 - 1008.0 - -
31/04:00am 28.6 - - - - W 20 - 11 - 1008.0 1008.6 -
31/03:30am 29.0 - - - - WNW 20 - 11 - 1008.0 - -
31/03:00am 28.5 - - - - W 2 19 1 10 1008.0 1008.5 -
31/02:30am 28.0 - - - - CALM 0 - 0 - 1008.0 - -
31/02:00am 27.9 - - - - CALM 0 - 0 - 1008.0 1008.4 -
31/01:30am 28.0 - - - - WNW 9 - 5 - 1008.0 - -
31/01:00am 27.7 - - - - CALM 0 - 0 - 1008.0 1008.3 -
31/12:30am 28.0 - - - - CALM 0 - 0 - 1008.0 - -
31/12:00am 27.6 - - - - ESE 7 7 4 4 1008.0 1008.7 -
 
Date/Time
WST
Temp
°C
App
Temp
°C
Dew
Point
Rel
Hum
%
Delta-T
°C
Wind Press
QNH
hPa
Press
MSL
hPa
Rain
since 9 am
mm
Dir
 
Spd
km/h
Gust
km/h
Spd
kts
Gust
kts
30/11:30pm 28.0 - - - - SE 6 - 3 - 1009.0 - -
30/11:00pm 28.1 - - - - SSW 7 - 4 - 1009.0 1009.3 -
30/10:30pm 28.0 - - - - SW 7 - 4 - 1009.0 - -
30/10:00pm 28.0 - - - - SSW 6 - 3 - 1009.0 1009.6 -
30/09:30pm 28.0 - - - - S 9 - 5 - 1009.0 - -
30/09:00pm 28.1 - - - - SSW 13 - 7 - 1009.0 1009.4 -
30/08:30pm 28.0 - - - - SSW 15 - 8 - 1009.0 - -
30/08:00pm 28.1 - - - - SSW 13 - 7 - 1008.0 1008.6 -
30/07:30pm 28.0 - - - - SW 13 - 7 - 1008.0 - -
30/07:00pm 28.1 - - - - WSW 17 - 9 - 1007.0 1007.4 -
30/06:30pm 28.0 - - - - WSW 19 - 10 - 1006.0 - -
30/06:00pm 27.8 - - - - W 22 22 12 12 1006.0 1006.1 -
30/05:30pm 28.0 - - - - W 26 - 14 - 1006.0 - -
30/05:00pm 27.9 - - - - W 28 - 15 - 1006.0 1006.3 -
30/04:30pm 27.0 - - - - WSW 19 - 10 - 1006.0 - -
30/04:00pm 27.3 - - - - WSW 17 - 9 - 1006.0 1006.4 -
30/03:30pm 27.0 - - - - SW 19 - 10 - 1006.0 - -
30/03:00pm 26.7 - - - - SW 24 - 13 - 1006.0 1006.5 -
30/02:30pm 26.0 - - - - S 35 - 19 - 1007.0 - -
30/02:00pm 26.0 - - - - SSE 39 - 21 - 1007.0 1007.4 -
30/01:30pm 26.0 - - - - SSE 37 - 20 - 1008.0 - -
30/01:16pm 26.0 - - - - S 28 - 15 - 1008.0 - -
30/01:00pm 24.8 - - - - SSW 11 - 6 - 1008.0 1008.5 -
30/12:59pm 25.0 - - - - SSW 11 - 6 - 1008.0 - -
30/12:38pm 24.0 - - - - WSW 37 - 20 - 1008.0 - -
30/12:30pm 26.0 - - - - SSW 39 - 21 - 1008.0 - -
30/12:27pm 26.0 - - - - SSW 35 - 19 - 1008.0 - -
30/12:00pm 27.5 - - - - SSW 20 - 11 - 1008.0 1008.5 -
30/11:33am 27.0 - - - - S 30 - 16 - 1009.0 - -
30/11:30am 28.0 - - - - SW 15 - 8 - 1009.0 - -
30/11:00am 28.2 - - - - W 19 - 10 - 1009.0 1009.1 -
30/10:30am 28.0 - - - - W 24 - 13 - 1009.0 - -
30/10:00am 27.5 - - - - W 24 - 13 - 1009.0 1009.4 -
30/09:30am 28.0 - - - - W 28 - 15 - 1009.0 - -
30/09:00am 27.2 - - - - W 32 - 17 - 1009.0 1009.1 -
30/08:30am 26.0 - - - - SSW 24 - 13 - 1009.0 - -
30/08:00am 28.1 - - - - WNW 22 - 12 - 1008.0 1008.7 -
30/07:30am 29.0 - - - - WSW 13 - 7 - 1008.0 - -
30/07:00am 28.3 - - - - WSW 17 - 9 - 1008.0 1008.1 -
30/06:30am 28.0 - - - - SW 22 - 12 - 1008.0 - -
30/06:00am 28.4 - - - - SW 11 - 6 - 1007.0 1007.4 -
30/05:30am 28.0 - - - - WSW 9 - 5 - 1007.0 - -
30/05:00am 28.4 - - - - WSW 15 - 8 - 1007.0 1006.9 -
30/04:30am 29.0 - - - - WSW 15 - 8 - 1006.0 - -
30/04:00am 28.4 - - - - SW 15 - 8 - 1006.0 1006.6 -
30/03:30am 28.0 - - - - WSW 15 - 8 - 1006.0 - -
30/03:00am 28.4 - - - - W 15 - 8 - 1006.0 1006.5 -
30/02:30am 28.0 - - - - W 13 - 7 - 1006.0 - -
30/02:00am 28.4 - - - - W 11 - 6 - 1006.0 1006.2 -
30/01:30am 28.0 - - - - WSW 9 - 5 - 1006.0 - -
30/01:00am 28.4 - - - - WSW 11 - 6 - 1006.0 1006.8 -
30/12:30am 29.0 - - - - W 11 - 6 - 1007.0 - -
30/12:00am 28.5 - - - - W 11 - 6 - 1007.0 1007.7 -
 
Date/Time
WST
Temp
°C
App
Temp
°C
Dew
Point
Rel
Hum
%
Delta-T
°C
Wind Press
QNH
hPa
Press
MSL
hPa
Rain
since 9 am
mm
Dir
 
Spd
km/h
Gust
km/h
Spd
kts
Gust
kts
29/11:30pm 29.0 - - - - W 11 - 6 - 1008.0 - -
29/11:00pm 28.6 - - - - W 11 - 6 - 1008.0 1008.3 -
29/10:30pm 29.0 - - - - W 9 - 5 - 1008.0 - -
29/10:00pm 28.6 - - - - WSW 11 - 6 - 1008.0 1008.7 -
29/09:30pm 29.0 - - - - WSW 9 - 5 - 1008.0 - -
29/09:00pm 28.7 - - - - SW 11 - 6 - 1008.0 1008.3 -
29/08:30pm 29.0 - - - - SW 13 - 7 - 1008.0 - -
29/08:00pm 28.7 - - - - WSW 13 - 7 - 1007.0 1007.4 -
29/07:30pm 29.0 - - - - WSW 15 - 8 - 1007.0 - -
29/07:00pm 28.7 - - - - WSW 15 - 8 - 1006.0 1006.6 -
29/06:30pm 29.0 - - - - SW 13 - 7 - 1006.0 - -
29/06:00pm 28.8 - - - - SW 15 - 8 - 1006.0 1005.9 -
29/05:30pm 29.0 - - - - SW 17 - 9 - 1005.0 - -
29/05:00pm 28.6 - - - - SW 20 - 11 - 1005.0 1005.3 -
29/04:30pm 29.0 - - - - WSW 19 - 10 - 1005.0 - -
29/04:00pm 28.6 - - - - SW 15 - 8 - 1005.0 1004.9 -
29/03:30pm 29.0 - - - - W 13 - 7 - 1004.0 - -
29/03:00pm 28.8 - - - - W 11 - 6 - 1004.0 1004.7 -
29/02:30pm 28.0 - - - - W 13 - 7 - 1005.0 - -
29/02:00pm 29.0 - - - - WNW 11 - 6 - 1005.0 1005.5 -
29/01:30pm 28.0 - - - - W 15 - 8 - 1006.0 - -
29/01:00pm 28.6 - - - - WNW 11 - 6 - 1006.0 1005.9 -
29/12:30pm 28.0 - - - - NE 9 - 5 - 1005.0 - -
29/12:00pm 28.7 - - - - SSW 6 - 3 - 1006.0 1006.3 -
29/11:30am 28.0 - - - - S 13 - 7 - 1006.0 - -
29/11:00am 28.3 - - - - SE 13 - 7 - 1006.0 1006.4 -
29/10:30am 28.0 - - - - SSW 15 - 8 - 1007.0 - -
29/10:00am 27.2 - - - - SW 19 - 10 - 1007.0 1007.4 -
29/09:30am 27.0 - - - - SW 26 - 14 - 1008.0 - -
29/09:00am 27.1 - - - - SW 24 - 13 - 1008.0 1008.1 -
29/08:30am 28.0 - - - - SW 33 - 18 - 1008.0 - -
29/08:00am 26.9 - - - - S 24 - 13 - 1008.0 1008.0 -
29/07:30am 27.0 - - - - S 15 - 8 - 1007.0 - -
29/07:00am 26.5 - - - - S 22 - 12 - 1007.0 1007.2 -
29/06:40am 26.0 - - - - SSW 24 - 13 - 1007.0 - -
29/06:30am 27.0 - - - - SSE 37 - 20 - 1007.0 - -
29/06:25am 27.0 - - - - S 41 - 22 - 1007.0 - -
29/06:00am 27.7 - - - - ESE 11 - 6 - 1006.0 1006.4 -
29/05:30am 28.0 - - - - ESE 11 - 6 - 1006.0 - -
29/05:00am 28.4 - - - - WNW 6 - 3 - 1005.0 1005.6 -
29/04:30am 27.0 - - - - W 28 - 15 - 1005.0 - -
29/04:09am 27.0 - - - - W 32 - 17 - 1005.0 - -
29/04:00am 28.9 - - - - SW 11 - 6 - 1005.0 1005.3 -
29/03:30am 29.0 - - - - SSW 15 - 8 - 1005.0 - -
29/03:00am 28.3 - - - - WNW 19 - 10 - 1005.0 1005.1 -
29/02:30am 29.0 - - - - W 15 - 8 - 1005.0 - -
29/02:00am 28.8 - - - - W 17 - 9 - 1005.0 1005.1 -
29/01:30am 29.0 - - - - W 17 - 9 - 1005.0 - -
29/01:00am 29.0 - - - - W 19 - 10 - 1005.0 1005.7 -
29/12:30am 29.0 - - - - W 19 - 10 - 1006.0 - -
29/12:00am 28.9 - - - - W 17 - 9 - 1006.0 1006.1 -
 
Date/Time
WST
Temp
°C
App
Temp
°C
Dew
Point
Rel
Hum
%
Delta-T
°C
Wind Press
QNH
hPa
Press
MSL
hPa
Rain
since 9 am
mm
Dir
 
Spd
km/h
Gust
km/h
Spd
kts
Gust
kts
28/11:30pm 29.0 - - - - W 17 - 9 - 1006.0 - -
28/11:00pm 29.0 - - - - W 19 - 10 - 1006.0 1006.6 -
28/10:30pm 29.0 - - - - WSW 19 - 10 - 1006.0 - -
28/10:00pm 29.1 - - - - WSW 19 - 10 - 1006.0 1006.8 -
28/09:30pm 29.0 - - - - WSW 19 - 10 - 1006.0 - -
28/09:00pm 29.2 - - - - WSW 20 - 11 - 1006.0 1006.4 -
28/08:30pm 29.0 - - - - WSW 20 - 11 - 1006.0 - -
28/08:00pm 29.1 - - - - W 19 - 10 - 1006.0 1006.1 -
28/07:30pm 29.0 - - - - W 17 - 9 - 1005.0 - -
28/07:00pm 29.2 - - - - WSW 19 - 10 - 1005.0 1005.4 -
28/06:30pm 29.0 - - - - WSW 19 - 10 - 1005.0 - -
28/06:00pm 29.1 - - - - WSW 19 - 10 - 1004.0 1004.6 -
28/05:30pm 29.0 - - - - WSW 20 - 11 - 1004.0 - -
28/05:00pm 29.5 - - - - WSW 20 - 11 - 1004.0 1004.4 -
28/04:30pm 29.0 - - - - SW 20 - 11 - 1004.0 - -
28/04:00pm 29.4 - - - - SW 20 - 11 - 1003.0 1003.8 -
28/03:30pm 30.0 - - - - SW 22 - 12 - 1004.0 - -
28/03:00pm 29.5 - - - - WSW 20 - 11 - 1004.0 1004.2 -
28/02:30pm 30.0 - - - - WSW 20 - 11 - 1004.0 - -
28/02:00pm 29.6 - - - - SW 20 - 11 - 1005.0 1004.9 -
28/01:30pm 29.0 - - - - WSW 20 - 11 - 1005.0 - -
28/01:00pm 29.8 - - - - WSW 20 - 11 - 1005.0 1005.4 -
28/12:30pm 29.0 - - - - WSW 19 - 10 - 1006.0 - -
28/12:00pm 29.5 - - - - WSW 19 - 10 - 1006.0 1006.2 -

Other Formats:

Comma delimited format used in spreadsheet applications
http://www.bom.gov.au/fwo/IDW60801/IDW60801.94103.axf

JavaScript Object Notation format (JSON) in row-major order
http://www.bom.gov.au/fwo/IDW60801/IDW60801.94103.json